createdAt,value
2022-12-01T00:03:01.364Z,981.99
2022-12-01T00:08:32.810Z,982.57
2022-12-01T00:14:04.296Z,982.32
2022-12-01T00:19:35.889Z,982.34
2022-12-01T00:25:07.657Z,981.62
2022-12-01T00:30:39.440Z,981.59
2022-12-01T00:36:11.279Z,982.23
2022-12-01T00:41:42.758Z,982.08
2022-12-01T00:47:18.858Z,982.31
2022-12-01T00:52:50.620Z,982.03
2022-12-01T00:58:22.409Z,982.18
2022-12-01T01:03:54.249Z,982.2
2022-12-01T01:09:26.477Z,982.26
2022-12-01T01:14:58.930Z,981.5
2022-12-01T01:20:29.181Z,982.5
2022-12-01T01:26:01.078Z,982.68
2022-12-01T01:31:32.758Z,981.99
2022-12-01T01:37:04.299Z,982.38
2022-12-01T01:42:36.313Z,982.5
2022-12-01T01:48:12.085Z,981.86
2022-12-01T01:53:43.844Z,982.36
2022-12-01T01:59:15.601Z,982.29
2022-12-01T02:04:47.252Z,982.42
2022-12-01T02:10:25.378Z,982.12
2022-12-01T02:15:50.868Z,982.39
2022-12-01T02:21:22.441Z,983.18
2022-12-01T02:26:54.277Z,983.14
2022-12-01T02:32:26.217Z,983.09
2022-12-01T02:37:57.665Z,983.06
2022-12-01T02:43:29.696Z,982.28
2022-12-01T02:49:05.637Z,981.51
2022-12-01T02:54:37.243Z,982.15
2022-12-01T03:00:08.983Z,982.63
2022-12-01T03:05:41.021Z,982.25
2022-12-01T03:11:12.525Z,982.26
2022-12-01T03:16:44.336Z,982.19
2022-12-01T03:22:15.926Z,982.0
2022-12-01T03:28:22.558Z,982.3
2022-12-01T03:33:19.412Z,982.2
2022-12-01T03:38:51.035Z,981.78
2022-12-01T03:44:22.720Z,981.29
2022-12-01T03:49:58.876Z,981.37
2022-12-01T03:55:30.616Z,981.25
2022-12-01T04:01:02.520Z,981.35
2022-12-01T04:06:34.032Z,981.05
2022-12-01T04:12:05.912Z,981.56
2022-12-01T04:17:37.655Z,981.02
2022-12-01T04:23:09.289Z,981.36
2022-12-01T04:28:41.245Z,981.68
2022-12-01T04:34:12.527Z,981.34
2022-12-01T04:39:44.597Z,981.21
2022-12-01T04:45:15.936Z,981.92
2022-12-01T04:50:52.136Z,982.14
2022-12-01T04:56:23.824Z,981.96
2022-12-01T05:01:56.036Z,982.47
2022-12-01T05:07:27.726Z,982.34
2022-12-01T05:12:59.214Z,982.65
2022-12-01T05:18:30.823Z,982.41
2022-12-01T05:24:02.893Z,982.76
2022-12-01T05:29:34.425Z,982.62
2022-12-01T05:35:06.040Z,982.62
2022-12-01T05:40:38.068Z,982.29
2022-12-01T05:46:10.013Z,982.25
2022-12-01T05:51:45.841Z,982.29
2022-12-01T05:57:17.347Z,981.6
2022-12-01T06:02:49.324Z,982.2
2022-12-01T06:08:20.787Z,982.49
2022-12-01T06:13:52.682Z,982.27
2022-12-01T06:19:24.400Z,982.25
2022-12-01T06:24:56.275Z,981.88
2022-12-01T06:30:27.609Z,982.35
2022-12-01T06:35:59.571Z,982.41
2022-12-01T06:41:31.117Z,982.48
2022-12-01T06:47:03.042Z,982.13
2022-12-01T06:52:41.204Z,981.96
2022-12-01T06:58:13.149Z,982.25
2022-12-01T07:03:44.411Z,982.69
2022-12-01T07:09:16.069Z,982.42
2022-12-01T07:14:47.837Z,982.24
2022-12-01T07:20:19.789Z,982.23
2022-12-01T07:25:51.809Z,982.04
2022-12-01T07:31:23.743Z,982.47
2022-12-01T07:36:54.965Z,982.66
2022-12-01T07:42:26.461Z,982.53
2022-12-01T07:47:58.113Z,982.13
2022-12-01T07:53:34.429Z,982.47
2022-12-01T07:59:06.084Z,982.44
2022-12-01T08:04:37.937Z,982.67
2022-12-01T08:10:09.563Z,982.95
2022-12-01T08:15:41.474Z,983.02
2022-12-01T08:21:12.944Z,982.8
2022-12-01T08:26:45.320Z,982.84
2022-12-01T08:32:16.657Z,982.46
2022-12-01T08:37:55.497Z,982.97
2022-12-01T08:43:59.736Z,983.01
2022-12-01T08:48:59.281Z,982.35
2022-12-01T08:54:36.996Z,982.32
2022-12-01T09:00:08.658Z,982.96
2022-12-01T09:05:40.464Z,982.75
2022-12-01T09:11:11.963Z,982.71
2022-12-01T09:16:44.122Z,982.82
2022-12-01T09:22:15.811Z,981.92
2022-12-01T09:27:47.432Z,982.71
2022-12-01T09:33:18.845Z,983.25
2022-12-01T09:38:50.463Z,982.81
2022-12-01T09:44:22.464Z,982.74
2022-12-01T09:49:53.966Z,982.88
2022-12-01T09:55:30.123Z,982.77
2022-12-01T10:01:03.517Z,982.46
2022-12-01T10:06:33.827Z,982.38
2022-12-01T10:12:05.272Z,981.68
2022-12-01T10:17:37.996Z,982.44
2022-12-01T10:23:09.063Z,981.71
2022-12-01T10:28:40.722Z,981.65
2022-12-01T10:34:13.206Z,981.69
2022-12-01T10:39:44.269Z,981.21
2022-12-01T10:45:15.776Z,981.92
2022-12-01T10:50:47.436Z,981.46
2022-12-01T10:56:25.815Z,981.23
2022-12-01T11:01:57.949Z,981.52
2022-12-01T11:07:30.044Z,982.25
2022-12-01T11:13:00.753Z,982.02
2022-12-01T11:18:32.768Z,982.44
2022-12-01T11:24:04.248Z,982.44
2022-12-01T11:29:36.159Z,982.81
2022-12-01T11:35:08.164Z,982.21
2022-12-01T11:40:39.228Z,983.09
2022-12-01T11:46:11.892Z,983.02
2022-12-01T11:51:42.737Z,982.78
2022-12-01T11:57:35.401Z,982.63
2022-12-01T12:02:50.613Z,982.47
2022-12-01T12:08:22.157Z,982.45
2022-12-01T12:13:54.499Z,982.26
2022-12-01T12:20:00.322Z,982.45
2022-12-01T12:24:57.508Z,982.19
2022-12-01T12:30:29.546Z,982.13
2022-12-01T12:36:00.896Z,982.49
2022-12-01T12:41:32.851Z,981.73
2022-12-01T12:47:05.181Z,981.5
2022-12-01T12:52:36.055Z,981.5
2022-12-01T12:58:12.552Z,981.62
2022-12-01T13:03:44.029Z,981.87
2022-12-01T13:09:15.840Z,981.57
2022-12-01T13:14:47.288Z,981.67
2022-12-01T13:20:18.914Z,981.77
2022-12-01T13:25:50.974Z,981.3
2022-12-01T13:31:22.899Z,981.34
2022-12-01T13:36:54.836Z,981.53
2022-12-01T13:42:25.853Z,981.53
2022-12-01T13:47:58.076Z,981.62
2022-12-01T13:53:29.760Z,981.83
2022-12-01T13:59:08.189Z,981.44
2022-12-01T14:04:39.612Z,981.59
2022-12-01T14:10:11.278Z,981.98
2022-12-01T14:15:43.194Z,981.66
2022-12-01T14:21:14.529Z,981.55
2022-12-01T14:26:45.956Z,982.01
2022-12-01T14:32:18.073Z,982.16
2022-12-01T14:37:49.708Z,982.42
2022-12-01T14:43:21.259Z,983.05
2022-12-01T14:48:53.195Z,982.35
2022-12-01T14:54:24.694Z,982.41
2022-12-01T15:00:02.803Z,982.03
2022-12-01T15:05:34.732Z,981.7
2022-12-01T15:11:12.022Z,981.84
2022-12-01T15:16:38.191Z,981.65
2022-12-01T15:22:10.137Z,981.56
2022-12-01T15:27:41.529Z,982.49
2022-12-01T15:33:13.348Z,982.34
2022-12-01T15:38:44.904Z,982.32
2022-12-01T15:44:16.661Z,982.87
2022-12-01T15:49:48.385Z,983.22
2022-12-01T15:55:20.106Z,983.05
2022-12-01T16:00:56.328Z,982.83
2022-12-01T16:06:28.079Z,983.07
2022-12-01T16:11:59.925Z,983.06
2022-12-01T16:17:31.617Z,983.24
2022-12-01T16:23:03.312Z,982.74
2022-12-01T16:28:34.760Z,983.05
2022-12-01T16:34:46.657Z,982.89
2022-12-01T16:39:38.656Z,982.94
2022-12-01T16:45:09.945Z,982.87
2022-12-01T16:50:41.896Z,982.79
2022-12-01T16:56:13.501Z,982.37
2022-12-01T17:01:49.690Z,982.75
2022-12-01T17:07:21.628Z,982.58
2022-12-01T17:12:53.748Z,982.7
2022-12-01T17:18:24.994Z,982.65
2022-12-01T17:23:56.445Z,982.84
2022-12-01T17:29:28.369Z,982.18
2022-12-01T17:34:59.914Z,982.54
2022-12-01T17:40:31.860Z,982.87
2022-12-01T17:46:03.584Z,982.77
2022-12-01T17:51:35.476Z,982.11
2022-12-01T17:57:07.075Z,982.1
2022-12-01T18:02:43.160Z,982.06
2022-12-01T18:08:14.788Z,982.38
2022-12-01T18:13:46.795Z,981.97
2022-12-01T18:19:18.391Z,982.33
2022-12-01T18:24:50.735Z,982.48
2022-12-01T18:30:21.879Z,982.76
2022-12-01T18:35:53.731Z,982.6
2022-12-01T18:41:25.359Z,982.39
2022-12-01T18:46:57.324Z,982.01
2022-12-01T18:52:28.852Z,982.36
2022-12-01T18:58:00.588Z,982.13
2022-12-01T19:03:36.348Z,981.69
2022-12-01T19:09:08.001Z,982.01
2022-12-01T19:14:39.818Z,982.34
2022-12-01T19:20:11.768Z,982.02
2022-12-01T19:25:43.516Z,982.53
2022-12-01T19:31:15.455Z,982.66
2022-12-01T19:36:46.846Z,981.85
2022-12-01T19:42:18.384Z,981.98
2022-12-01T19:47:50.225Z,982.05
2022-12-01T19:53:22.145Z,982.1
2022-12-01T19:58:53.736Z,982.69
2022-12-01T20:04:31.864Z,982.81
2022-12-01T20:10:03.805Z,982.31
2022-12-01T20:15:35.153Z,982.19
2022-12-01T20:21:07.000Z,982.43
2022-12-01T20:26:39.237Z,982.59
2022-12-01T20:32:10.654Z,982.56
2022-12-01T20:37:42.081Z,982.44
2022-12-01T20:43:13.801Z,982.66
2022-12-01T20:48:45.698Z,982.51
2022-12-01T20:54:30.945Z,982.89
2022-12-01T20:59:49.026Z,982.19
2022-12-01T21:05:26.061Z,982.22
2022-12-01T21:10:56.853Z,982.32
2022-12-01T21:16:29.544Z,982.36
2022-12-01T21:22:00.497Z,981.88
2022-12-01T21:27:32.248Z,982.03
2022-12-01T21:33:03.815Z,981.81
2022-12-01T21:38:35.300Z,981.84
2022-12-01T21:44:07.151Z,981.94
2022-12-01T21:49:38.935Z,981.7
2022-12-01T21:55:10.566Z,981.58
2022-12-01T22:00:42.447Z,982.27
2022-12-01T22:06:32.035Z,982.11
2022-12-01T22:11:50.166Z,982.4
2022-12-01T22:17:21.903Z,982.23
2022-12-01T22:22:53.718Z,982.62
2022-12-01T22:28:25.350Z,982.48
2022-12-01T22:34:04.229Z,982.45
2022-12-01T22:39:28.686Z,982.58
2022-12-01T22:45:00.614Z,982.58
2022-12-01T22:50:32.438Z,983.07
2022-12-01T22:56:04.153Z,982.66
2022-12-01T23:01:36.461Z,982.19
2022-12-01T23:07:12.093Z,981.68
2022-12-01T23:12:44.233Z,981.87
2022-12-01T23:18:15.284Z,981.9
2022-12-01T23:23:46.942Z,982.28
2022-12-01T23:29:19.090Z,981.73
2022-12-01T23:34:58.565Z,981.48
2022-12-01T23:40:22.225Z,981.55
2022-12-01T23:45:54.641Z,981.44
2022-12-01T23:51:25.867Z,981.75
2022-12-01T23:56:57.349Z,981.62
